Time;durP1;ratioP1;P1;durP2;ratioP2;P2;SDS_P1;SDS_P2;PMS_P1;PMS_P2;Temp;Humidity;BMP_temperature;BMP_pressure;BME280_temperature;BME280_humidity;BME280_pressure;Samples;Min_cycle;Max_cycle;Signal;HPM_P1;HPM_P2
2022/03/31 00:01:55;;;;;;;;;;;7.60;36.70;;;5.93;40.74;100125.59;8280249;28;20007;-81
2022/03/31 00:06:17;;;;;;;;;;;7.50;36.90;;;5.86;40.74;100119.00;8294699;28;20020;-81
2022/03/31 00:10:40;;;;;;;;;;;7.60;36.70;;;5.77;40.67;100112.50;8282449;28;20347;-81
2022/03/31 00:15:02;;;;;;;;;;;7.60;36.90;;;5.65;40.72;100100.97;8288076;28;19928;-81
2022/03/31 00:19:24;;;;;;;;;;;7.50;36.90;;;5.53;40.85;100091.97;8286294;28;20000;-81
2022/03/31 00:23:46;;;;;;;;;;;7.50;37.10;;;5.72;40.92;100133.44;8286845;28;20016;-81
2022/03/31 00:28:08;;;;;;;;;;;7.40;37.10;;;5.53;40.67;100110.09;8272336;28;20016;-81
2022/03/31 00:32:30;;;;;;;;;;;7.40;37.20;;;5.45;40.39;100109.59;8284104;28;20016;-81
2022/03/31 00:36:51;;;;;;;;;;;7.40;37.30;;;5.41;40.70;100097.72;8298769;28;20019;-81
2022/03/31 00:41:13;;;;;;;;;;;7.30;37.10;;;5.43;40.45;100115.78;8280843;28;19944;-81
2022/03/31 00:45:46;;;;;;;;;;;7.20;37.20;;;5.36;40.83;100101.41;8298113;28;20445;-80
2022/03/31 00:50:11;;;;;;;;;;;7.20;37.10;;;5.33;40.83;100103.22;8270678;28;19996;-81
2022/03/31 00:54:33;;;;;;;;;;;7.10;37.30;;;5.10;40.57;100075.75;8280841;28;20313;-81
2022/03/31 00:58:54;;;;;;;;;;;6.90;37.20;;;5.22;40.49;100104.59;8273377;28;20014;-81
2022/03/31 01:03:17;;;;;;;;;;;7.10;37.20;;;5.08;40.61;100079.31;8272291;28;19917;-81
2022/03/31 01:07:40;;;;;;;;;;;7.00;37.20;;;5.09;40.80;100102.53;8271195;28;20012;-81
2022/03/31 01:12:02;;;;;;;;;;;6.90;37.30;;;4.92;41.03;100076.53;8254842;28;20008;-81
2022/03/31 01:16:24;;;;;;;;;;;6.90;37.20;;;4.98;40.63;100096.13;8264549;28;20445;-81
2022/03/31 01:20:46;;;;;;;;;;;6.90;37.20;;;4.98;40.74;100096.13;8271895;28;20356;-81
2022/03/31 01:25:09;;;;;;;;;;;6.80;37.20;;;4.95;40.87;100094.50;8271595;28;20004;-81
2022/03/31 01:29:31;;;;;;;;;;;6.80;37.10;;;4.87;40.74;100088.81;8272760;28;20012;-81
2022/03/31 01:33:53;;;;;;;;;;;6.70;37.20;;;4.66;41.02;100068.09;8285610;28;20004;-81
2022/03/31 01:38:15;;;;;;;;;;;6.70;37.50;;;4.82;40.86;100114.03;8283828;28;20013;-81
2022/03/31 01:42:38;;;;;;;;;;;6.70;37.10;;;4.50;40.80;100071.41;8279296;28;20045;-81
2022/03/31 01:47:00;;;;;;;;;;;6.50;37.30;;;4.64;40.86;100113.03;8263581;28;20004;-81
2022/03/31 01:51:22;;;;;;;;;;;6.30;37.10;;;4.39;41.07;100069.25;8272188;28;20011;-81
2022/03/31 01:55:44;;;;;;;;;;;6.50;37.30;;;4.40;40.84;100092.47;8265068;28;20306;-81
2022/03/31 02:00:07;;;;;;;;;;;6.40;37.00;;;4.23;40.99;100066.44;8272007;28;20008;-81
2022/03/31 02:04:36;;;;;;;;;;;6.40;37.20;;;4.36;41.06;100105.56;8282466;28;19924;-82
2022/03/31 02:08:58;;;;;;;;;;;6.20;37.40;;;4.42;41.46;100113.06;8284344;28;19928;-81
2022/03/31 02:13:19;;;;;;;;;;;6.20;37.20;;;4.29;41.00;100104.94;8257496;28;19925;-82
2022/03/31 02:17:41;;;;;;;;;;;6.20;37.10;;;4.31;41.03;100125.56;8282227;28;19924;-81
2022/03/31 02:22:04;;;;;;;;;;;6.20;37.60;;;4.19;41.04;100113.97;8282193;28;20004;-81
2022/03/31 02:26:26;;;;;;;;;;;6.10;37.20;;;4.19;41.08;100127.72;8268276;28;19917;-81
2022/03/31 02:30:48;;;;;;;;;;;6.00;37.20;;;4.11;41.12;100116.84;8255061;28;20012;-81
2022/03/31 02:35:11;;;;;;;;;;;6.00;37.10;;;4.02;41.27;100119.78;8267818;28;19927;-81
2022/03/31 02:39:33;;;;;;;;;;;5.90;38.10;;;4.04;41.12;100127.47;8265564;28;20012;-81
2022/03/31 02:43:54;;;;;;;;;;;5.70;38.10;;;3.92;41.30;100127.03;8270580;28;20012;-81
2022/03/31 02:48:16;;;;;;;;;;;5.80;38.30;;;3.47;41.31;100063.28;8282253;28;19917;-81
2022/03/31 02:57:19;;;;;;;;;;;5.50;37.90;;;3.68;41.12;100123.63;8281034;28;20012;-81
2022/03/31 03:01:43;;;;;;;;;;;5.50;37.50;;;3.58;41.27;100134.34;8263727;28;20008;-81
2022/03/31 03:06:05;;;;;;;;;;;5.50;37.60;;;3.48;41.30;100116.59;8262869;28;20008;-81
2022/03/31 03:10:27;;;;;;;;;;;5.50;37.40;;;3.41;41.16;100111.72;8253571;28;20008;-81
2022/03/31 03:14:49;;;;;;;;;;;5.40;38.10;;;3.39;41.27;100119.50;8282010;28;19956;-81
2022/03/31 03:19:11;;;;;;;;;;;5.30;37.60;;;3.38;41.44;100122.16;8261178;28;19996;-81
2022/03/31 03:23:37;;;;;;;;;;;5.20;37.40;;;3.27;41.28;100099.31;8261687;28;20004;-81
2022/03/31 03:27:59;;;;;;;;;;;5.20;37.90;;;3.24;41.32;100108.00;8293031;28;20004;-81
2022/03/31 03:32:22;;;;;;;;;;;5.00;37.40;;;3.09;41.29;100088.72;8265480;28;20008;-80
2022/03/31 03:36:43;;;;;;;;;;;5.20;37.60;;;3.23;41.47;100110.63;8280043;28;20012;-81
2022/03/31 03:41:06;;;;;;;;;;;5.20;37.90;;;3.16;41.23;100109.13;8278173;28;20084;-81
2022/03/31 03:45:28;;;;;;;;;;;5.10;37.60;;;2.98;41.47;100085.66;8263932;28;20013;-81
2022/03/31 03:49:50;;;;;;;;;;;5.10;37.40;;;3.01;41.58;100098.47;8266542;28;20016;-81
2022/03/31 03:54:12;;;;;;;;;;;4.90;38.00;;;2.90;41.03;100081.69;8267783;28;19928;-81
2022/03/31 03:58:35;;;;;;;;;;;5.00;37.80;;;2.96;41.24;100100.34;8276878;28;19917;-81
2022/03/31 04:02:57;;;;;;;;;;;4.90;38.00;;;2.96;41.31;100108.09;8274411;28;19997;-81
2022/03/31 04:07:20;;;;;;;;;;;4.80;37.50;;;2.80;41.68;100094.03;8266349;28;20364;-81
2022/03/31 04:11:42;;;;;;;;;;;4.80;37.80;;;2.86;41.23;100101.53;8246287;28;19924;-81
2022/03/31 04:16:04;;;;;;;;;;;4.90;37.90;;;2.84;41.58;100108.50;8260119;28;19933;-81
2022/03/31 04:20:26;;;;;;;;;;;4.70;37.70;;;2.74;41.57;100107.13;8286872;28;20424;-81
2022/03/31 04:24:47;;;;;;;;;;;4.60;38.30;;;2.58;41.56;100092.16;8276991;28;19921;-82
2022/03/31 04:29:10;;;;;;;;;;;4.40;37.70;;;2.49;41.49;100086.47;8262522;28;20398;-81
2022/03/31 04:33:32;;;;;;;;;;;4.60;38.40;;;2.58;41.55;100104.19;8266510;28;19921;-81
2022/03/31 04:37:53;;;;;;;;;;;4.50;38.10;;;2.49;41.61;100095.03;8277050;28;20313;-81
2022/03/31 04:42:16;;;;;;;;;;;4.50;37.80;;;2.39;41.48;100085.91;8263563;28;20024;-82
2022/03/31 04:46:37;;;;;;;;;;;4.40;38.30;;;2.38;41.83;100091.97;8272916;28;19917;-81
2022/03/31 04:51:02;;;;;;;;;;;4.30;38.20;;;2.29;41.60;100090.50;8284666;28;20488;-81
2022/03/31 04:55:25;;;;;;;;;;;4.40;38.00;;;2.40;41.79;100118.50;8289503;28;19925;-82
2022/03/31 04:59:47;;;;;;;;;;;4.30;37.90;;;2.23;41.70;100095.84;8270694;28;19943;-80
2022/03/31 05:04:09;;;;;;;;;;;4.30;38.30;;;2.15;41.69;100087.53;8272285;28;19996;-80
2022/03/31 05:08:31;;;;;;;;;;;4.30;38.40;;;2.12;41.41;100091.03;8271438;28;19924;-80
2022/03/31 05:12:53;;;;;;;;;;;4.20;38.50;;;2.08;41.80;100102.34;8288180;28;20008;-80
2022/03/31 05:17:14;;;;;;;;;;;4.20;38.60;;;2.08;41.92;100092.03;8275357;28;19924;-80
2022/03/31 05:21:36;;;;;;;;;;;4.10;38.90;;;2.05;41.69;100093.84;8289356;28;20007;-81
2022/03/31 05:25:58;;;;;;;;;;;4.10;38.70;;;2.19;41.65;100128.59;8265751;28;20000;-81
2022/03/31 05:30:20;;;;;;;;;;;4.10;38.50;;;2.28;41.95;100142.09;8280370;28;20008;-81
2022/03/31 05:34:41;;;;;;;;;;;4.20;38.30;;;2.11;41.85;100109.97;8268299;28;20345;-81
2022/03/31 05:39:04;;;;;;;;;;;4.20;38.10;;;2.01;42.17;100098.25;8266722;28;19917;-81
2022/03/31 05:43:26;;;;;;;;;;;4.10;38.80;;;2.13;41.94;100123.66;8266556;28;19921;-82
2022/03/31 05:47:48;;;;;;;;;;;4.10;38.80;;;2.18;42.17;100132.03;8273530;28;20643;-81
2022/03/31 05:52:10;;;;;;;;;;;4.20;37.90;;;2.11;42.37;100128.00;8275929;28;19921;-81
2022/03/31 05:56:32;;;;;;;;;;;4.10;38.60;;;1.98;42.09;100098.34;8272470;28;19921;-81
2022/03/31 06:00:54;;;;;;;;;;;4.10;38.20;;;2.15;42.26;100123.56;8279973;28;20011;-79
2022/03/31 06:05:17;;;;;;;;;;;4.20;38.10;;;2.24;42.34;100143.06;8296196;28;20012;-80
2022/03/31 06:09:39;;;;;;;;;;;4.20;39.30;;;2.23;42.11;100137.06;8275822;28;19958;-81
2022/03/31 06:14:00;;;;;;;;;;;4.20;39.40;;;2.19;42.05;100133.75;8274449;28;19930;-84
2022/03/31 06:18:23;;;;;;;;;;;4.20;39.00;;;2.34;42.24;100139.31;8294248;28;20004;-80
2022/03/31 06:22:44;;;;;;;;;;;4.30;39.20;;;2.18;42.18;100108.88;8281931;28;20004;-80
2022/03/31 06:27:08;;;;;;;;;;;4.30;39.90;;;2.47;42.30;100150.94;8295121;28;20418;-80
2022/03/31 06:31:30;;;;;;;;;;;4.40;38.70;;;2.51;42.47;100147.38;8275358;28;20033;-81
2022/03/31 06:35:51;;;;;;;;;;;4.40;38.70;;;2.52;42.22;100141.31;8280610;28;19925;-79
2022/03/31 06:40:14;;;;;;;;;;;4.50;39.20;;;2.62;42.50;100145.31;8281877;28;20008;-82
2022/03/31 06:44:36;;;;;;;;;;;4.60;39.00;;;2.54;42.15;100130.94;8278953;28;20008;-82
2022/03/31 06:48:58;;;;;;;;;;;4.60;38.90;;;2.78;42.41;100144.78;8294916;28;20614;-81
2022/03/31 06:53:20;;;;;;;;;;;4.60;38.60;;;2.68;42.39;100120.22;8266906;28;20374;-82
2022/03/31 06:57:42;;;;;;;;;;;5.00;38.30;;;2.84;42.33;100122.25;8266891;28;20012;-80
2022/03/31 07:02:04;;;;;;;;;;;4.90;38.20;;;2.87;42.47;100123.88;8263095;28;19984;-77
2022/03/31 07:06:25;;;;;;;;;;;5.00;38.50;;;3.07;42.43;100128.34;8280437;28;20008;-81
2022/03/31 07:10:47;;;;;;;;;;;5.00;38.60;;;3.18;42.60;100140.88;8280901;28;20008;-81
2022/03/31 07:15:10;;;;;;;;;;;5.10;38.80;;;3.23;42.61;100136.41;8269368;28;19928;-80
2022/03/31 07:19:32;;;;;;;;;;;5.20;38.90;;;3.36;42.49;100137.69;8280031;28;19917;-83
2022/03/31 07:23:54;;;;;;;;;;;5.10;39.00;;;3.44;42.14;100125.34;8262969;28;20442;-82
2022/03/31 07:28:16;;;;;;;;;;;5.20;38.30;;;3.50;42.49;100119.13;8277232;28;20480;-83
2022/03/31 07:32:49;;;;;;;;;;;5.40;38.40;;;3.47;42.32;100091.69;8259698;28;19940;-83
2022/03/31 07:37:10;;;;;;;;;;;5.50;38.70;;;3.67;42.33;100113.34;8268082;28;19933;-82
2022/03/31 07:41:32;;;;;;;;;;;5.50;38.30;;;3.71;42.64;100089.09;8266034;28;19921;-83
2022/03/31 07:45:54;;;;;;;;;;;5.70;38.30;;;3.98;42.68;100113.06;8258221;28;20000;-83
2022/03/31 07:50:18;;;;;;;;;;;5.90;38.30;;;4.16;42.62;100104.59;8259641;28;19921;-79
2022/03/31 07:54:39;;;;;;;;;;;6.00;38.50;;;4.19;42.23;100083.81;8273200;28;19925;-84
2022/03/31 07:59:01;;;;;;;;;;;6.20;38.40;;;4.45;42.38;100100.00;8251730;28;20168;-84
2022/03/31 08:03:22;;;;;;;;;;;6.40;38.30;;;4.54;42.31;100093.66;8245783;28;19928;-83
2022/03/31 08:07:44;;;;;;;;;;;6.60;38.10;;;4.78;42.15;100107.28;8265830;28;19927;-83
2022/03/31 08:12:06;;;;;;;;;;;6.70;37.90;;;4.87;42.45;100101.75;8273086;28;19921;-81
2022/03/31 08:16:28;;;;;;;;;;;6.80;37.80;;;5.03;42.52;100113.16;8288377;28;19926;-82
2022/03/31 08:20:50;;;;;;;;;;;6.90;37.60;;;5.14;42.19;100109.25;8266883;28;19928;-81
2022/03/31 08:25:13;;;;;;;;;;;6.90;37.60;;;5.38;42.05;100128.09;8273325;28;19925;-84
2022/03/31 08:29:34;;;;;;;;;;;7.20;37.70;;;5.46;42.21;100118.22;8256661;28;19921;-82
2022/03/31 08:33:56;;;;;;;;;;;7.30;37.60;;;5.43;42.30;100076.94;8269746;28;19925;-80
2022/03/31 08:38:18;;;;;;;;;;;7.50;37.60;;;5.85;41.73;100113.00;8254056;28;19933;-84
2022/03/31 08:42:40;;;;;;;;;;;7.70;37.50;;;5.67;42.50;100054.25;8258697;28;20271;-83
2022/03/31 08:47:02;;;;;;;;;;;7.80;37.30;;;6.04;42.28;100107.84;8252993;28;19945;-83
2022/03/31 08:51:24;;;;;;;;;;;8.00;37.00;;;6.15;41.93;100103.00;8253148;28;19929;-84
2022/03/31 08:55:46;;;;;;;;;;;8.00;37.20;;;6.40;41.86;100114.81;8252746;28;19926;-83
2022/03/31 09:00:09;;;;;;;;;;;8.30;37.20;;;6.50;42.11;100105.66;8271804;28;19925;-82
2022/03/31 09:04:34;;;;;;;;;;;8.40;36.60;;;6.60;41.91;100116.44;8258139;28;20305;-85
2022/03/31 09:09:03;;;;;;;;;;;8.50;36.90;;;6.71;42.34;100123.72;8248754;28;20706;-82
2022/03/31 09:13:25;;;;;;;;;;;8.60;36.90;;;6.76;42.00;100116.53;8282638;28;19921;-83
2022/03/31 09:17:53;;;;;;;;;;;8.60;36.90;;;6.86;42.00;100102.19;8267111;28;19925;-83
2022/03/31 09:22:15;;;;;;;;;;;8.70;36.90;;;6.86;41.45;100090.06;8271520;28;20001;-82
2022/03/31 09:26:47;;;;;;;;;;;8.60;36.70;;;7.17;41.94;100105.84;8270524;28;20409;-83
2022/03/31 09:31:10;;;;;;;;;;;9.00;36.80;;;7.39;42.02;100119.38;8265428;28;19930;-83
2022/03/31 09:35:32;;;;;;;;;;;9.20;37.10;;;7.60;41.77;100111.41;8249454;28;20359;-83
2022/03/31 09:39:55;;;;;;;;;;;9.40;36.40;;;7.54;41.42;100090.00;8262397;28;19929;-82
2022/03/31 09:44:19;;;;;;;;;;;9.50;36.60;;;7.71;41.23;100098.66;8260710;28;19925;-84
2022/03/31 09:48:41;;;;;;;;;;;9.60;36.60;;;7.81;41.66;100096.44;8251863;28;19921;-84
2022/03/31 09:53:03;;;;;;;;;;;9.70;36.40;;;7.91;41.38;100101.06;8259340;28;19922;-85
2022/03/31 09:57:24;;;;;;;;;;;9.70;35.70;;;7.85;41.12;100080.56;8258934;28;19925;-84
2022/03/31 10:01:46;;;;;;;;;;;9.80;35.80;;;7.89;41.36;100076.91;8257369;28;19943;-86
2022/03/31 10:06:08;;;;;;;;;;;9.90;36.10;;;8.05;41.06;100081.25;8240677;28;19926;-85
2022/03/31 10:10:33;;;;;;;;;;;10.00;36.30;;;8.12;41.21;100061.78;8246730;28;20650;-85
2022/03/31 10:15:09;;;;;;;;;;;10.10;35.80;;;8.44;41.20;100091.22;8260443;28;20005;-83
2022/03/31 10:19:35;;;;;;;;;;;10.20;35.90;;;8.47;41.21;100079.81;8257664;28;19921;-92
2022/03/31 10:28:37;;;;;;;;;;;10.30;34.90;;;8.36;40.79;100068.19;8284680;28;19922;-85
2022/03/31 10:33:03;;;;;;;;;;;10.30;35.50;;;8.51;41.21;100070.91;8254657;28;19922;-85
2022/03/31 10:37:38;;;;;;;;;;;10.40;35.70;;;8.55;41.04;100054.19;8267749;28;19932;-88
2022/03/31 10:42:02;;;;;;;;;;;10.50;35.90;;;8.71;41.12;100070.56;8267234;28;19921;-84
2022/03/31 10:46:25;;;;;;;;;;;10.50;35.80;;;8.62;41.27;100052.91;8251475;28;19981;-85
2022/03/31 10:50:59;;;;;;;;;;;10.60;35.80;;;8.61;40.71;100030.41;8251977;28;20709;-86
2022/03/31 10:55:20;;;;;;;;;;;10.70;35.60;;;8.70;40.84;100066.31;8254045;28;19929;-87
2022/03/31 10:59:44;;;;;;;;;;;10.60;35.90;;;8.80;41.20;100067.47;8259547;28;19926;-87
2022/03/31 11:04:11;;;;;;;;;;;10.50;36.00;;;8.85;40.73;100069.78;8270366;28;19932;-87
2022/03/31 11:08:46;;;;;;;;;;;10.70;35.60;;;8.74;40.92;100038.34;8260304;28;20314;-84
2022/03/31 11:13:08;;;;;;;;;;;10.70;36.00;;;8.86;40.73;100050.63;8269800;28;19922;-86
2022/03/31 11:17:30;;;;;;;;;;;10.70;35.50;;;8.89;40.62;100049.63;8259531;28;19925;-84
2022/03/31 11:21:52;;;;;;;;;;;10.70;35.60;;;8.94;40.46;100052.75;8270167;28;19925;-82
2022/03/31 11:26:25;;;;;;;;;;;10.80;35.70;;;9.03;40.59;100039.22;8275390;28;19925;-87
2022/03/31 11:30:48;;;;;;;;;;;10.80;35.80;;;9.07;40.74;100018.13;8248634;28;19927;-82
2022/03/31 11:35:17;;;;;;;;;;;10.80;36.00;;;9.10;40.65;100001.47;8272681;28;20345;-80
2022/03/31 11:39:46;;;;;;;;;;;11.00;35.90;;;9.25;40.24;100020.53;8258152;28;20481;-84
2022/03/31 11:44:08;;;;;;;;;;;11.10;34.70;;;9.38;40.21;100033.63;8260107;28;19925;-83
2022/03/31 11:48:38;;;;;;;;;;;11.10;35.70;;;9.29;40.38;99985.53;8286761;28;19928;-81
2022/03/31 11:53:03;;;;;;;;;;;11.20;35.90;;;9.46;40.69;100014.00;8288904;28;19921;-84
2022/03/31 11:57:24;;;;;;;;;;;11.20;35.70;;;9.49;40.52;100010.34;8278698;28;19932;-82
2022/03/31 12:01:48;;;;;;;;;;;11.20;35.10;;;9.57;40.52;100023.75;8287096;28;19921;-84
2022/03/31 12:06:10;;;;;;;;;;;11.30;35.50;;;9.50;40.24;100014.63;8257997;28;19921;-84
2022/03/31 12:10:31;;;;;;;;;;;11.20;35.60;;;9.31;40.11;99997.50;8273457;28;19925;-82
2022/03/31 12:14:55;;;;;;;;;;;11.20;34.90;;;9.31;40.36;99983.66;8276416;28;19930;-84
2022/03/31 12:19:18;;;;;;;;;;;11.30;35.50;;;9.49;40.49;99998.16;8278813;28;19928;-83
2022/03/31 12:23:43;;;;;;;;;;;11.30;35.50;;;9.51;40.51;100003.28;8255777;28;20283;-82
2022/03/31 12:28:10;;;;;;;;;;;11.40;35.30;;;9.64;40.52;100009.41;8257712;28;19926;-82
2022/03/31 12:32:33;;;;;;;;;;;11.40;34.70;;;9.56;40.29;99996.03;8264560;28;20279;-81
2022/03/31 12:36:55;;;;;;;;;;;11.40;34.80;;;9.52;40.09;99977.09;8264819;28;19925;-82
2022/03/31 12:41:25;;;;;;;;;;;11.30;35.70;;;9.59;40.03;99993.22;8258012;28;19927;-81
2022/03/31 12:45:47;;;;;;;;;;;11.40;35.00;;;9.67;39.95;100005.78;8263068;28;19921;-83
2022/03/31 12:50:20;;;;;;;;;;;11.40;35.40;;;9.39;40.11;99939.72;8247470;28;19925;-82
2022/03/31 12:54:50;;;;;;;;;;;11.40;34.90;;;9.59;40.38;99974.97;8260769;28;19925;-82
2022/03/31 12:59:19;;;;;;;;;;;11.50;34.90;;;9.75;40.34;99993.09;8270780;28;20313;-83
2022/03/31 13:03:41;;;;;;;;;;;11.50;35.10;;;9.64;40.00;99965.09;8263296;28;19924;-82
2022/03/31 13:08:03;;;;;;;;;;;11.50;35.10;;;9.72;39.57;99988.91;8262358;28;19922;-83
2022/03/31 13:12:25;;;;;;;;;;;11.50;35.30;;;9.66;39.92;99988.44;8266581;28;19928;-82
2022/03/31 13:16:47;;;;;;;;;;;11.50;34.40;;;9.61;39.78;99986.13;8259013;28;19948;-83
2022/03/31 13:21:09;;;;;;;;;;;11.50;35.10;;;9.54;39.76;99974.41;8263543;28;19926;-82
2022/03/31 13:25:31;;;;;;;;;;;11.50;34.70;;;9.56;39.78;99967.34;8277560;28;19921;-83
2022/03/31 13:29:54;;;;;;;;;;;11.50;34.60;;;9.66;39.46;99971.03;8269973;28;19929;-83
2022/03/31 13:34:16;;;;;;;;;;;11.40;35.00;;;9.60;39.57;99955.78;8273320;28;19931;-82
2022/03/31 13:38:38;;;;;;;;;;;11.40;34.30;;;9.68;39.95;99968.34;8262882;28;19932;-82
2022/03/31 13:43:00;;;;;;;;;;;11.40;34.20;;;9.59;39.75;99971.53;8277329;28;19943;-82
2022/03/31 13:47:21;;;;;;;;;;;11.30;34.90;;;9.53;40.02;99968.38;8261467;28;19927;-82
2022/03/31 13:51:44;;;;;;;;;;;11.30;34.40;;;9.46;39.97;99950.63;8272835;28;21303;-81
2022/03/31 13:56:06;;;;;;;;;;;11.20;34.50;;;9.54;39.14;99966.59;8276356;28;19925;-82
2022/03/31 14:05:08;;;;;;;;;;;11.30;34.40;;;9.39;39.55;99939.72;8276731;28;19925;-85
2022/03/31 14:09:30;;;;;;;;;;;11.30;34.70;;;9.38;39.83;99932.03;8255098;28;19926;-83
2022/03/31 14:13:51;;;;;;;;;;;11.20;34.60;;;9.35;39.49;99911.38;8263672;28;19967;-83
2022/03/31 14:18:13;;;;;;;;;;;11.20;33.30;;;9.43;39.28;99943.00;8248181;28;19955;-83
2022/03/31 14:22:35;;;;;;;;;;;11.20;34.00;;;9.43;39.21;99941.22;8263878;28;19921;-82
2022/03/31 14:26:57;;;;;;;;;;;11.20;32.70;;;9.34;39.57;99914.91;8267920;28;19922;-85
2022/03/31 14:31:23;;;;;;;;;;;11.20;33.70;;;9.55;39.27;99944.81;8278718;28;20397;-84
2022/03/31 14:35:46;;;;;;;;;;;11.20;33.90;;;9.43;39.19;99930.78;8257364;28;19959;-84
2022/03/31 14:40:11;;;;;;;;;;;11.20;32.30;;;8.89;38.82;99847.38;8260267;28;20442;-84
2022/03/31 14:44:33;;;;;;;;;;;11.20;32.80;;;8.80;39.07;99827.09;8261022;28;19925;-84
2022/03/31 14:48:56;;;;;;;;;;;11.20;32.30;;;9.02;39.20;99852.66;8272406;28;20357;-84
2022/03/31 14:53:18;;;;;;;;;;;11.10;32.90;;;9.03;38.89;99841.28;8258898;28;19959;-86
2022/03/31 14:57:40;;;;;;;;;;;11.30;32.70;;;9.04;39.11;99848.16;8256723;28;19929;-86
2022/03/31 15:02:02;;;;;;;;;;;11.20;33.60;;;9.41;38.86;99913.59;8236115;28;19924;-86
2022/03/31 15:06:30;;;;;;;;;;;11.00;32.10;;;9.01;38.79;99848.38;8254239;28;20418;-87
2022/03/31 15:15:32;;;;;;;;;;;11.20;30.80;;;9.35;38.56;99908.78;8273105;28;19925;-86
2022/03/31 15:19:54;;;;;;;;;;;11.20;31.30;;;9.01;38.60;99857.00;8254157;28;19925;-87
2022/03/31 15:24:16;;;;;;;;;;;11.10;32.40;;;9.38;38.34;99921.59;8261941;28;19922;-84
2022/03/31 15:28:40;;;;;;;;;;;11.10;30.10;;;9.18;38.28;99884.63;8273121;28;19921;-85
2022/03/31 15:33:02;;;;;;;;;;;11.10;30.00;;;9.08;37.82;99880.91;8248586;28;19922;-85
2022/03/31 15:37:24;;;;;;;;;;;11.30;29.40;;;9.06;37.56;99886.19;8261699;28;19936;-84
2022/03/31 15:41:46;;;;;;;;;;;11.00;29.90;;;9.14;37.58;99892.72;8259510;28;20319;-84
2022/03/31 15:46:08;;;;;;;;;;;11.00;30.90;;;9.14;37.69;99892.72;8259306;28;20044;-84
2022/03/31 15:50:30;;;;;;;;;;;11.00;31.90;;;9.19;37.73;99911.50;8253955;28;20476;-83
2022/03/31 15:54:52;;;;;;;;;;;11.00;30.30;;;9.23;37.94;99921.59;8258407;28;19933;-85
2022/03/31 15:59:13;;;;;;;;;;;10.90;30.80;;;9.19;37.48;99909.72;8245523;28;20279;-85
2022/03/31 16:03:35;;;;;;;;;;;10.90;29.90;;;9.13;37.52;99907.50;8257660;28;19928;-84
2022/03/31 16:07:57;;;;;;;;;;;11.00;30.50;;;9.03;37.99;99899.41;8255562;28;20408;-84
2022/03/31 16:12:18;;;;;;;;;;;10.90;29.70;;;9.26;37.63;99931.88;8265632;28;19921;-84
2022/03/31 16:16:40;;;;;;;;;;;10.90;31.00;;;9.08;37.43;99888.72;8257857;28;19925;-84
2022/03/31 16:21:03;;;;;;;;;;;10.90;28.30;;;9.14;37.18;99903.97;8257383;28;19922;-84
2022/03/31 16:25:24;;;;;;;;;;;10.90;30.70;;;9.23;37.30;99916.41;8260763;28;20302;-84
2022/03/31 16:29:46;;;;;;;;;;;11.00;29.60;;;9.21;37.33;99920.88;8271031;28;20439;-85
2022/03/31 16:34:08;;;;;;;;;;;10.90;29.20;;;9.17;37.39;99922.00;8270872;28;19921;-86
2022/03/31 16:38:31;;;;;;;;;;;10.90;30.90;;;9.20;37.31;99929.63;8257594;28;20413;-86
2022/03/31 16:42:53;;;;;;;;;;;10.90;31.40;;;9.20;37.06;99934.81;8258833;28;19928;-86
2022/03/31 16:47:19;;;;;;;;;;;10.90;28.90;;;8.99;37.42;99897.09;8276756;28;19921;-85
2022/03/31 16:51:42;;;;;;;;;;;10.70;29.90;;;9.11;36.84;99925.00;8254213;28;19922;-85
2022/03/31 16:56:04;;;;;;;;;;;10.90;29.40;;;9.14;36.59;99932.63;8282869;28;19933;-86
2022/03/31 17:00:26;;;;;;;;;;;10.90;30.00;;;9.03;36.58;99914.22;8269344;28;19921;-85
2022/03/31 17:04:47;;;;;;;;;;;10.90;30.80;;;9.01;36.99;99914.28;8255006;28;19922;-86
2022/03/31 17:09:09;;;;;;;;;;;10.90;30.00;;;9.12;36.64;99918.84;8267995;28;19921;-85
2022/03/31 17:13:31;;;;;;;;;;;10.90;30.30;;;9.10;36.59;99928.53;8255660;28;19921;-85
2022/03/31 17:17:53;;;;;;;;;;;10.90;30.10;;;9.15;36.91;99939.47;8255032;28;19941;-85
2022/03/31 17:22:15;;;;;;;;;;;10.80;29.00;;;9.07;36.51;99933.91;8270167;28;19925;-85
2022/03/31 17:26:37;;;;;;;;;;;10.90;29.10;;;9.01;36.34;99932.53;8258621;28;19943;-85
2022/03/31 17:30:59;;;;;;;;;;;10.80;28.90;;;9.09;36.28;99945.06;8259954;28;19927;-86
2022/03/31 17:35:22;;;;;;;;;;;10.80;27.50;;;8.92;36.37;99925.28;8271355;28;20313;-83
2022/03/31 17:39:43;;;;;;;;;;;10.80;30.50;;;9.00;36.15;99950.88;8242117;28;19926;-80
2022/03/31 17:44:05;;;;;;;;;;;10.70;29.40;;;8.97;36.25;99957.09;8267694;28;19927;-84
2022/03/31 17:48:27;;;;;;;;;;;10.70;29.90;;;8.92;36.34;99951.31;8249399;28;20366;-84
2022/03/31 17:52:49;;;;;;;;;;;10.70;30.50;;;8.97;36.18;99956.25;8272582;28;20301;-81
2022/03/31 17:57:11;;;;;;;;;;;10.70;30.10;;;8.82;36.26;99940.63;8260388;28;19926;-82
2022/03/31 18:01:33;;;;;;;;;;;10.70;30.20;;;8.92;36.24;99955.69;8289236;28;19936;-82
2022/03/31 18:05:54;;;;;;;;;;;10.70;29.80;;;9.04;36.80;99979.22;8264145;28;19925;-81
2022/03/31 18:10:17;;;;;;;;;;;10.70;28.60;;;8.94;36.41;99969.44;8270235;28;20515;-82
2022/03/31 18:14:39;;;;;;;;;;;10.70;28.90;;;8.86;36.45;99967.31;8267234;28;19928;-82
2022/03/31 18:19:02;;;;;;;;;;;10.70;30.30;;;8.88;36.37;99975.03;8256628;28;20001;-80
2022/03/31 18:23:24;;;;;;;;;;;10.50;29.70;;;8.85;36.07;99983.84;8270484;28;19947;-81
2022/03/31 18:27:46;;;;;;;;;;;10.60;29.40;;;8.84;35.92;99990.84;8251863;28;19928;-82
2022/03/31 18:36:49;;;;;;;;;;;10.60;29.40;;;8.89;36.27;100015.78;8254742;28;19936;-83
2022/03/31 18:41:13;;;;;;;;;;;10.50;29.30;;;8.72;35.73;99986.38;8276982;28;22228;-83
2022/03/31 18:45:35;;;;;;;;;;;10.50;29.30;;;8.59;36.04;99969.81;8264751;28;19932;-84
2022/03/31 18:49:57;;;;;;;;;;;10.50;29.50;;;8.82;35.94;100013.50;8251032;28;19940;-83
2022/03/31 18:54:18;;;;;;;;;;;10.50;29.10;;;8.81;35.99;100016.22;8259943;28;19918;-83
2022/03/31 18:58:40;;;;;;;;;;;10.50;30.00;;;8.67;35.68;99997.97;8277920;28;19921;-83
2022/03/31 19:03:02;;;;;;;;;;;10.50;29.40;;;8.65;36.10;100008.47;8266903;28;19940;-84
2022/03/31 19:07:24;;;;;;;;;;;10.50;29.60;;;8.65;35.86;100016.28;8260695;28;19924;-84
2022/03/31 19:11:46;;;;;;;;;;;10.70;29.30;;;8.69;35.86;100022.97;8243051;28;19930;-86
2022/03/31 19:16:08;;;;;;;;;;;10.40;29.30;;;8.65;35.81;100031.91;8232074;28;19936;-85
2022/03/31 19:20:44;;;;;;;;;;;10.40;30.20;;;8.64;35.71;100030.22;8251477;28;19934;-85
2022/03/31 19:25:18;;;;;;;;;;;10.40;30.00;;;7.87;35.63;99925.38;8270304;28;19931;-86
2022/03/31 19:29:40;;;;;;;;;;;10.30;29.80;;;8.32;35.36;100008.66;8261976;28;19924;-85
2022/03/31 19:34:04;;;;;;;;;;;10.30;29.60;;;8.27;35.68;99995.91;8270934;28;20379;-84
2022/03/31 19:38:26;;;;;;;;;;;10.30;29.40;;;8.48;35.44;100050.25;8258397;28;20337;-84
2022/03/31 19:42:47;;;;;;;;;;;10.20;28.20;;;8.34;34.88;100027.59;8263656;28;19921;-85
2022/03/31 19:47:12;;;;;;;;;;;10.20;28.40;;;8.35;35.06;100058.72;8256535;28;19922;-85
2022/03/31 19:51:37;;;;;;;;;;;10.10;28.10;;;8.18;34.72;100025.88;8266712;28;19939;-84
2022/03/31 19:55:59;;;;;;;;;;;9.90;28.20;;;8.16;34.56;100045.94;8258247;28;19925;-85
2022/03/31 20:00:22;;;;;;;;;;;10.10;28.90;;;8.30;35.05;100057.31;8258804;28;19917;-85
2022/03/31 20:04:44;;;;;;;;;;;10.00;30.00;;;8.05;35.17;100034.47;8264229;28;19936;-86
2022/03/31 20:09:09;;;;;;;;;;;9.90;29.10;;;7.97;34.97;100027.09;8271523;28;19921;-84
2022/03/31 20:13:31;;;;;;;;;;;9.90;29.70;;;8.05;34.69;100063.91;8247648;28;19924;-84
2022/03/31 20:17:56;;;;;;;;;;;9.80;29.50;;;7.92;35.01;100053.31;8259011;28;19921;-85
2022/03/31 20:22:18;;;;;;;;;;;9.70;29.30;;;7.88;34.83;100044.00;8270578;28;20039;-84
2022/03/31 20:26:42;;;;;;;;;;;9.70;28.60;;;7.76;34.92;100045.53;8268777;28;20375;-85
2022/03/31 20:31:04;;;;;;;;;;;9.60;29.30;;;7.30;34.90;99979.63;8262281;28;20481;-84
2022/03/31 20:35:27;;;;;;;;;;;9.50;29.80;;;7.62;35.11;100039.41;8260819;28;19925;-86
2022/03/31 20:39:52;;;;;;;;;;;9.50;30.00;;;7.59;34.83;100070.72;8258162;28;19936;-85
2022/03/31 20:44:14;;;;;;;;;;;9.40;30.10;;;7.37;35.27;100024.28;8261910;28;19923;-84